sensor_id;sensor_type;location;lat;lon;timestamp;temperature;humidity
27741;DHT22;15134;48.768;9.184;2023-08-06T00:00:47;18.10;99.90
27741;DHT22;15134;48.768;9.184;2023-08-06T00:03:13;18.00;99.90
27741;DHT22;15134;48.768;9.184;2023-08-06T00:05:42;18.10;99.90
27741;DHT22;15134;48.768;9.184;2023-08-06T00:08:08;18.00;99.90
27741;DHT22;15134;48.768;9.184;2023-08-06T00:10:34;18.00;99.90
27741;DHT22;15134;48.768;9.184;2023-08-06T00:13:00;17.90;99.90
27741;DHT22;15134;48.768;9.184;2023-08-06T00:15:26;17.90;99.90
27741;DHT22;15134;48.768;9.184;2023-08-06T00:17:51;17.90;99.90
27741;DHT22;15134;48.768;9.184;2023-08-06T00:20:17;17.80;99.90
27741;DHT22;15134;48.768;9.184;2023-08-06T00:22:43;17.70;99.90
27741;DHT22;15134;48.768;9.184;2023-08-06T00:25:09;17.70;99.90
27741;DHT22;15134;48.768;9.184;2023-08-06T00:27:35;17.60;99.90
27741;DHT22;15134;48.768;9.184;2023-08-06T00:30:01;17.60;99.90
27741;DHT22;15134;48.768;9.184;2023-08-06T00:32:27;17.50;99.90
27741;DHT22;15134;48.768;9.184;2023-08-06T00:34:55;17.50;99.90
27741;DHT22;15134;48.768;9.184;2023-08-06T00:37:20;17.30;99.90
27741;DHT22;15134;48.768;9.184;2023-08-06T00:39:46;17.40;99.90
27741;DHT22;15134;48.768;9.184;2023-08-06T00:42:12;17.30;99.90
27741;DHT22;15134;48.768;9.184;2023-08-06T00:44:38;17.30;99.90
27741;DHT22;15134;48.768;9.184;2023-08-06T00:47:07;17.20;99.90
27741;DHT22;15134;48.768;9.184;2023-08-06T00:49:35;17.10;99.90
27741;DHT22;15134;48.768;9.184;2023-08-06T00:52:01;17.10;99.90
27741;DHT22;15134;48.768;9.184;2023-08-06T00:54:28;17.10;99.90
27741;DHT22;15134;48.768;9.184;2023-08-06T00:56:55;17.20;99.90
27741;DHT22;15134;48.768;9.184;2023-08-06T00:59:23;17.10;99.90
27741;DHT22;15134;48.768;9.184;2023-08-06T01:01:51;17.10;99.90
27741;DHT22;15134;48.768;9.184;2023-08-06T01:04:17;17.00;99.90
27741;DHT22;15134;48.768;9.184;2023-08-06T01:06:52;17.00;99.90
27741;DHT22;15134;48.768;9.184;2023-08-06T01:09:43;16.90;99.90
27741;DHT22;15134;48.768;9.184;2023-08-06T01:17:33;17.00;99.90
27741;DHT22;15134;48.768;9.184;2023-08-06T01:19:59;17.00;99.90
27741;DHT22;15134;48.768;9.184;2023-08-06T01:22:25;17.00;99.90
27741;DHT22;15134;48.768;9.184;2023-08-06T01:24:51;17.00;99.90
27741;DHT22;15134;48.768;9.184;2023-08-06T01:27:48;17.00;99.90
27741;DHT22;15134;48.768;9.184;2023-08-06T01:30:33;17.10;99.90
27741;DHT22;15134;48.768;9.184;2023-08-06T01:33:04;17.10;99.90
27741;DHT22;15134;48.768;9.184;2023-08-06T01:35:32;17.10;99.90
27741;DHT22;15134;48.768;9.184;2023-08-06T01:38:02;17.20;99.90
27741;DHT22;15134;48.768;9.184;2023-08-06T01:40:30;17.10;99.90
27741;DHT22;15134;48.768;9.184;2023-08-06T01:42:56;17.10;99.90
27741;DHT22;15134;48.768;9.184;2023-08-06T01:45:22;17.10;99.90
27741;DHT22;15134;48.768;9.184;2023-08-06T01:47:49;17.00;99.90
27741;DHT22;15134;48.768;9.184;2023-08-06T01:50:15;17.00;99.90
27741;DHT22;15134;48.768;9.184;2023-08-06T01:52:43;17.10;99.90
27741;DHT22;15134;48.768;9.184;2023-08-06T01:55:11;17.00;99.90
27741;DHT22;15134;48.768;9.184;2023-08-06T01:57:37;17.00;99.90
27741;DHT22;15134;48.768;9.184;2023-08-06T02:00:03;17.00;99.90
27741;DHT22;15134;48.768;9.184;2023-08-06T02:02:38;16.90;99.90
27741;DHT22;15134;48.768;9.184;2023-08-06T02:05:06;16.90;99.90
27741;DHT22;15134;48.768;9.184;2023-08-06T02:07:32;16.80;99.90
27741;DHT22;15134;48.768;9.184;2023-08-06T02:09:57;16.80;99.90
27741;DHT22;15134;48.768;9.184;2023-08-06T02:12:23;16.80;99.90
27741;DHT22;15134;48.768;9.184;2023-08-06T02:14:49;16.70;99.90
27741;DHT22;15134;48.768;9.184;2023-08-06T02:17:15;16.70;99.90
27741;DHT22;15134;48.768;9.184;2023-08-06T02:19:41;16.70;99.90
27741;DHT22;15134;48.768;9.184;2023-08-06T02:22:08;16.60;99.90
27741;DHT22;15134;48.768;9.184;2023-08-06T02:24:34;16.60;99.90
27741;DHT22;15134;48.768;9.184;2023-08-06T02:27:00;16.50;99.90
27741;DHT22;15134;48.768;9.184;2023-08-06T02:29:25;16.40;99.90
27741;DHT22;15134;48.768;9.184;2023-08-06T02:31:51;16.40;99.90
27741;DHT22;15134;48.768;9.184;2023-08-06T02:34:17;16.50;99.90
27741;DHT22;15134;48.768;9.184;2023-08-06T02:36:44;16.40;99.90
27741;DHT22;15134;48.768;9.184;2023-08-06T02:39:10;16.40;99.90
27741;DHT22;15134;48.768;9.184;2023-08-06T02:41:36;16.40;99.90
27741;DHT22;15134;48.768;9.184;2023-08-06T02:44:02;16.40;99.90
27741;DHT22;15134;48.768;9.184;2023-08-06T02:46:28;16.40;99.90
27741;DHT22;15134;48.768;9.184;2023-08-06T02:48:54;16.40;99.90
27741;DHT22;15134;48.768;9.184;2023-08-06T02:51:20;16.30;99.90
27741;DHT22;15134;48.768;9.184;2023-08-06T02:53:47;16.30;99.90
27741;DHT22;15134;48.768;9.184;2023-08-06T02:56:16;16.40;99.90
27741;DHT22;15134;48.768;9.184;2023-08-06T02:58:51;16.40;99.90
27741;DHT22;15134;48.768;9.184;2023-08-06T03:01:29;16.40;99.90
27741;DHT22;15134;48.768;9.184;2023-08-06T03:04:04;16.40;99.90
27741;DHT22;15134;48.768;9.184;2023-08-06T03:06:35;16.30;99.90
27741;DHT22;15134;48.768;9.184;2023-08-06T03:09:02;16.30;99.90
27741;DHT22;15134;48.768;9.184;2023-08-06T03:11:28;16.30;99.90
27741;DHT22;15134;48.768;9.184;2023-08-06T03:13:59;16.30;99.90
27741;DHT22;15134;48.768;9.184;2023-08-06T03:16:26;16.30;99.90
27741;DHT22;15134;48.768;9.184;2023-08-06T03:18:53;16.30;99.90
27741;DHT22;15134;48.768;9.184;2023-08-06T03:21:20;16.30;99.90
27741;DHT22;15134;48.768;9.184;2023-08-06T03:23:49;16.30;99.90
27741;DHT22;15134;48.768;9.184;2023-08-06T03:26:17;16.30;99.90
27741;DHT22;15134;48.768;9.184;2023-08-06T03:28:46;16.20;99.90
27741;DHT22;15134;48.768;9.184;2023-08-06T03:31:13;16.30;99.90
27741;DHT22;15134;48.768;9.184;2023-08-06T03:33:42;16.30;99.90
27741;DHT22;15134;48.768;9.184;2023-08-06T03:36:13;16.30;99.90
27741;DHT22;15134;48.768;9.184;2023-08-06T03:38:38;16.30;99.90
27741;DHT22;15134;48.768;9.184;2023-08-06T03:41:06;16.30;99.90
27741;DHT22;15134;48.768;9.184;2023-08-06T03:43:34;16.30;99.90
27741;DHT22;15134;48.768;9.184;2023-08-06T03:46:01;16.40;99.90
27741;DHT22;15134;48.768;9.184;2023-08-06T03:48:27;16.40;99.90
27741;DHT22;15134;48.768;9.184;2023-08-06T03:50:53;16.40;99.90
27741;DHT22;15134;48.768;9.184;2023-08-06T03:53:19;16.30;99.90
27741;DHT22;15134;48.768;9.184;2023-08-06T03:55:49;16.40;99.90
27741;DHT22;15134;48.768;9.184;2023-08-06T03:58:15;16.40;99.90
27741;DHT22;15134;48.768;9.184;2023-08-06T04:00:41;16.40;99.90
27741;DHT22;15134;48.768;9.184;2023-08-06T04:03:07;16.30;99.90
27741;DHT22;15134;48.768;9.184;2023-08-06T04:05:33;16.30;99.90
27741;DHT22;15134;48.768;9.184;2023-08-06T04:07:58;16.30;99.90
27741;DHT22;15134;48.768;9.184;2023-08-06T04:10:26;16.30;99.90
27741;DHT22;15134;48.768;9.184;2023-08-06T04:12:51;16.30;99.90
27741;DHT22;15134;48.768;9.184;2023-08-06T04:15:19;16.30;99.90
27741;DHT22;15134;48.768;9.184;2023-08-06T04:17:45;16.20;99.90
27741;DHT22;15134;48.768;9.184;2023-08-06T04:20:14;16.20;99.90
27741;DHT22;15134;48.768;9.184;2023-08-06T04:22:39;16.30;99.90
27741;DHT22;15134;48.768;9.184;2023-08-06T04:25:06;16.30;99.90
27741;DHT22;15134;48.768;9.184;2023-08-06T04:27:33;16.40;99.90
27741;DHT22;15134;48.768;9.184;2023-08-06T04:29:59;16.30;99.90
27741;DHT22;15134;48.768;9.184;2023-08-06T04:32:25;16.30;99.90
27741;DHT22;15134;48.768;9.184;2023-08-06T04:34:55;16.40;99.90
27741;DHT22;15134;48.768;9.184;2023-08-06T04:37:21;16.50;99.90
27741;DHT22;15134;48.768;9.184;2023-08-06T04:39:49;16.50;99.90
27741;DHT22;15134;48.768;9.184;2023-08-06T04:42:17;16.60;99.90
27741;DHT22;15134;48.768;9.184;2023-08-06T04:44:43;16.60;99.90
27741;DHT22;15134;48.768;9.184;2023-08-06T04:47:09;16.70;99.90
27741;DHT22;15134;48.768;9.184;2023-08-06T04:49:35;16.70;99.90
27741;DHT22;15134;48.768;9.184;2023-08-06T04:52:02;16.70;99.90
27741;DHT22;15134;48.768;9.184;2023-08-06T04:54:28;16.70;99.90
27741;DHT22;15134;48.768;9.184;2023-08-06T04:56:53;16.60;99.90
27741;DHT22;15134;48.768;9.184;2023-08-06T04:59:19;16.60;99.90
27741;DHT22;15134;48.768;9.184;2023-08-06T05:01:46;16.60;99.90
27741;DHT22;15134;48.768;9.184;2023-08-06T05:04:12;16.50;99.90
27741;DHT22;15134;48.768;9.184;2023-08-06T05:06:38;16.50;99.90
27741;DHT22;15134;48.768;9.184;2023-08-06T05:09:04;16.50;99.90
27741;DHT22;15134;48.768;9.184;2023-08-06T05:11:34;16.60;99.90
27741;DHT22;15134;48.768;9.184;2023-08-06T05:14:02;16.70;99.90
27741;DHT22;15134;48.768;9.184;2023-08-06T05:16:30;16.80;99.90
27741;DHT22;15134;48.768;9.184;2023-08-06T05:18:56;16.90;99.90
27741;DHT22;15134;48.768;9.184;2023-08-06T05:21:22;16.80;99.90
27741;DHT22;15134;48.768;9.184;2023-08-06T05:23:47;16.80;99.90
27741;DHT22;15134;48.768;9.184;2023-08-06T05:26:13;16.70;99.90
27741;DHT22;15134;48.768;9.184;2023-08-06T05:28:44;16.70;99.90
27741;DHT22;15134;48.768;9.184;2023-08-06T05:31:11;16.80;99.90
27741;DHT22;15134;48.768;9.184;2023-08-06T05:33:37;17.00;99.90
27741;DHT22;15134;48.768;9.184;2023-08-06T05:36:03;17.50;99.90
27741;DHT22;15134;48.768;9.184;2023-08-06T05:38:29;17.80;99.90
27741;DHT22;15134;48.768;9.184;2023-08-06T05:40:56;17.90;99.90
27741;DHT22;15134;48.768;9.184;2023-08-06T05:43:22;18.00;99.90
27741;DHT22;15134;48.768;9.184;2023-08-06T05:45:51;18.00;99.90
27741;DHT22;15134;48.768;9.184;2023-08-06T05:48:17;18.00;99.90
27741;DHT22;15134;48.768;9.184;2023-08-06T05:50:42;17.90;99.90
27741;DHT22;15134;48.768;9.184;2023-08-06T05:53:08;17.80;99.90
27741;DHT22;15134;48.768;9.184;2023-08-06T05:55:35;17.70;99.90
27741;DHT22;15134;48.768;9.184;2023-08-06T05:58:01;17.70;99.90
27741;DHT22;15134;48.768;9.184;2023-08-06T06:00:26;17.60;99.90
27741;DHT22;15134;48.768;9.184;2023-08-06T06:02:52;17.50;99.90
27741;DHT22;15134;48.768;9.184;2023-08-06T06:05:18;17.40;99.90
27741;DHT22;15134;48.768;9.184;2023-08-06T06:07:44;17.30;99.90
27741;DHT22;15134;48.768;9.184;2023-08-06T06:10:11;17.20;99.90
27741;DHT22;15134;48.768;9.184;2023-08-06T06:12:38;17.20;99.90
27741;DHT22;15134;48.768;9.184;2023-08-06T06:15:05;17.20;99.90
27741;DHT22;15134;48.768;9.184;2023-08-06T06:17:31;17.00;99.90
27741;DHT22;15134;48.768;9.184;2023-08-06T06:19:59;16.90;99.90
27741;DHT22;15134;48.768;9.184;2023-08-06T06:22:25;16.90;99.90
27741;DHT22;15134;48.768;9.184;2023-08-06T06:24:50;17.00;99.90
27741;DHT22;15134;48.768;9.184;2023-08-06T06:27:17;17.00;99.90
27741;DHT22;15134;48.768;9.184;2023-08-06T06:29:43;17.10;99.90
27741;DHT22;15134;48.768;9.184;2023-08-06T06:32:09;17.10;99.90
27741;DHT22;15134;48.768;9.184;2023-08-06T06:34:35;17.10;99.90
27741;DHT22;15134;48.768;9.184;2023-08-06T06:37:01;17.00;99.90
27741;DHT22;15134;48.768;9.184;2023-08-06T06:39:30;17.10;99.90
27741;DHT22;15134;48.768;9.184;2023-08-06T06:41:56;17.20;99.90
27741;DHT22;15134;48.768;9.184;2023-08-06T06:44:30;17.20;99.90
27741;DHT22;15134;48.768;9.184;2023-08-06T06:46:56;17.30;99.90
27741;DHT22;15134;48.768;9.184;2023-08-06T06:49:25;17.40;99.90
27741;DHT22;15134;48.768;9.184;2023-08-06T06:51:51;17.60;99.90
27741;DHT22;15134;48.768;9.184;2023-08-06T06:54:16;17.70;99.90
27741;DHT22;15134;48.768;9.184;2023-08-06T06:56:42;17.80;99.90
27741;DHT22;15134;48.768;9.184;2023-08-06T06:59:08;17.90;99.90
27741;DHT22;15134;48.768;9.184;2023-08-06T07:01:35;18.00;99.90
27741;DHT22;15134;48.768;9.184;2023-08-06T07:04:01;17.80;99.90
27741;DHT22;15134;48.768;9.184;2023-08-06T07:06:30;17.60;99.90
27741;DHT22;15134;48.768;9.184;2023-08-06T07:08:56;17.50;99.90
27741;DHT22;15134;48.768;9.184;2023-08-06T07:11:22;17.50;99.90
27741;DHT22;15134;48.768;9.184;2023-08-06T07:13:49;17.40;99.90
27741;DHT22;15134;48.768;9.184;2023-08-06T07:16:21;17.40;99.90
27741;DHT22;15134;48.768;9.184;2023-08-06T07:18:53;17.30;99.90
27741;DHT22;15134;48.768;9.184;2023-08-06T07:21:20;17.20;99.90
27741;DHT22;15134;48.768;9.184;2023-08-06T07:23:46;17.20;99.90
27741;DHT22;15134;48.768;9.184;2023-08-06T07:26:17;17.10;99.90
27741;DHT22;15134;48.768;9.184;2023-08-06T07:28:43;17.10;99.90
27741;DHT22;15134;48.768;9.184;2023-08-06T07:31:10;17.10;99.90
27741;DHT22;15134;48.768;9.184;2023-08-06T07:33:36;17.00;99.90
27741;DHT22;15134;48.768;9.184;2023-08-06T07:36:12;17.00;99.90
27741;DHT22;15134;48.768;9.184;2023-08-06T07:38:38;16.90;99.90
27741;DHT22;15134;48.768;9.184;2023-08-06T07:41:04;16.80;99.90
27741;DHT22;15134;48.768;9.184;2023-08-06T07:43:31;16.90;99.90
27741;DHT22;15134;48.768;9.184;2023-08-06T07:46:00;17.00;99.90
27741;DHT22;15134;48.768;9.184;2023-08-06T07:48:29;17.00;99.90
27741;DHT22;15134;48.768;9.184;2023-08-06T07:50:55;17.10;99.90
27741;DHT22;15134;48.768;9.184;2023-08-06T07:53:22;17.10;99.90
27741;DHT22;15134;48.768;9.184;2023-08-06T07:55:52;17.00;99.90
27741;DHT22;15134;48.768;9.184;2023-08-06T07:58:19;17.00;99.90
27741;DHT22;15134;48.768;9.184;2023-08-06T08:00:46;17.00;99.90
27741;DHT22;15134;48.768;9.184;2023-08-06T08:03:15;17.00;99.90
27741;DHT22;15134;48.768;9.184;2023-08-06T08:05:44;17.00;99.90
27741;DHT22;15134;48.768;9.184;2023-08-06T08:08:10;17.20;99.90
27741;DHT22;15134;48.768;9.184;2023-08-06T08:10:39;17.30;99.90
27741;DHT22;15134;48.768;9.184;2023-08-06T08:13:06;17.30;99.90
27741;DHT22;15134;48.768;9.184;2023-08-06T08:15:32;17.50;99.90
27741;DHT22;15134;48.768;9.184;2023-08-06T08:17:58;17.60;99.90
27741;DHT22;15134;48.768;9.184;2023-08-06T08:20:24;17.90;99.90
27741;DHT22;15134;48.768;9.184;2023-08-06T08:22:50;18.00;99.90
27741;DHT22;15134;48.768;9.184;2023-08-06T08:25:19;18.10;99.90
27741;DHT22;15134;48.768;9.184;2023-08-06T08:27:44;18.10;99.90
27741;DHT22;15134;48.768;9.184;2023-08-06T08:30:11;18.50;99.90
27741;DHT22;15134;48.768;9.184;2023-08-06T08:32:36;18.90;99.90
27741;DHT22;15134;48.768;9.184;2023-08-06T08:35:02;19.10;99.90
27741;DHT22;15134;48.768;9.184;2023-08-06T08:37:28;19.80;99.90
27741;DHT22;15134;48.768;9.184;2023-08-06T08:39:57;20.60;99.90
27741;DHT22;15134;48.768;9.184;2023-08-06T08:42:22;20.50;99.90
27741;DHT22;15134;48.768;9.184;2023-08-06T08:44:48;20.20;99.90
27741;DHT22;15134;48.768;9.184;2023-08-06T08:47:15;19.90;99.90
27741;DHT22;15134;48.768;9.184;2023-08-06T08:49:42;19.60;99.90
27741;DHT22;15134;48.768;9.184;2023-08-06T08:52:10;19.40;99.90
27741;DHT22;15134;48.768;9.184;2023-08-06T08:54:38;19.20;99.90
27741;DHT22;15134;48.768;9.184;2023-08-06T08:57:05;18.90;99.90
27741;DHT22;15134;48.768;9.184;2023-08-06T08:59:34;18.60;99.90
27741;DHT22;15134;48.768;9.184;2023-08-06T09:02:01;18.40;99.90
27741;DHT22;15134;48.768;9.184;2023-08-06T09:04:29;18.20;99.90
27741;DHT22;15134;48.768;9.184;2023-08-06T09:06:58;18.40;99.90
27741;DHT22;15134;48.768;9.184;2023-08-06T09:09:32;18.60;99.90
27741;DHT22;15134;48.768;9.184;2023-08-06T09:12:01;18.70;99.90
27741;DHT22;15134;48.768;9.184;2023-08-06T09:14:28;18.60;99.90
27741;DHT22;15134;48.768;9.184;2023-08-06T09:16:54;18.80;99.90
27741;DHT22;15134;48.768;9.184;2023-08-06T09:19:20;19.40;99.90
27741;DHT22;15134;48.768;9.184;2023-08-06T09:21:46;19.70;99.90
27741;DHT22;15134;48.768;9.184;2023-08-06T09:24:15;19.80;99.90
27741;DHT22;15134;48.768;9.184;2023-08-06T09:26:45;19.90;99.90
27741;DHT22;15134;48.768;9.184;2023-08-06T09:29:11;19.90;99.90
27741;DHT22;15134;48.768;9.184;2023-08-06T09:31:49;20.20;99.90
27741;DHT22;15134;48.768;9.184;2023-08-06T09:34:22;20.50;99.90
27741;DHT22;15134;48.768;9.184;2023-08-06T09:36:48;20.60;99.90
27741;DHT22;15134;48.768;9.184;2023-08-06T09:39:18;20.40;99.90
27741;DHT22;15134;48.768;9.184;2023-08-06T09:41:45;20.20;99.90
27741;DHT22;15134;48.768;9.184;2023-08-06T09:44:20;19.80;99.90
27741;DHT22;15134;48.768;9.184;2023-08-06T09:46:49;19.40;99.90
27741;DHT22;15134;48.768;9.184;2023-08-06T09:49:15;19.10;99.90
27741;DHT22;15134;48.768;9.184;2023-08-06T09:51:42;18.90;99.90
27741;DHT22;15134;48.768;9.184;2023-08-06T09:54:08;18.90;99.90
27741;DHT22;15134;48.768;9.184;2023-08-06T09:56:40;19.00;99.90
27741;DHT22;15134;48.768;9.184;2023-08-06T09:59:07;19.10;99.90
27741;DHT22;15134;48.768;9.184;2023-08-06T10:01:35;18.90;99.90
27741;DHT22;15134;48.768;9.184;2023-08-06T10:04:05;18.80;99.90
27741;DHT22;15134;48.768;9.184;2023-08-06T10:06:37;18.70;99.90
27741;DHT22;15134;48.768;9.184;2023-08-06T10:09:04;18.60;99.90
27741;DHT22;15134;48.768;9.184;2023-08-06T10:11:30;18.60;99.90
27741;DHT22;15134;48.768;9.184;2023-08-06T10:14:12;18.50;99.90
27741;DHT22;15134;48.768;9.184;2023-08-06T10:16:41;18.40;99.90
27741;DHT22;15134;48.768;9.184;2023-08-06T10:19:09;18.40;99.90
27741;DHT22;15134;48.768;9.184;2023-08-06T10:21:38;18.30;99.90
27741;DHT22;15134;48.768;9.184;2023-08-06T10:24:07;18.20;99.90
27741;DHT22;15134;48.768;9.184;2023-08-06T10:26:39;18.20;99.90
27741;DHT22;15134;48.768;9.184;2023-08-06T10:29:36;18.20;99.90
27741;DHT22;15134;48.768;9.184;2023-08-06T10:32:02;18.10;99.90
27741;DHT22;15134;48.768;9.184;2023-08-06T10:34:56;18.00;99.90
27741;DHT22;15134;48.768;9.184;2023-08-06T10:37:35;17.90;99.90
27741;DHT22;15134;48.768;9.184;2023-08-06T10:40:03;17.90;99.90
27741;DHT22;15134;48.768;9.184;2023-08-06T10:42:31;17.90;99.90
27741;DHT22;15134;48.768;9.184;2023-08-06T10:45:16;18.00;99.90
27741;DHT22;15134;48.768;9.184;2023-08-06T10:47:43;18.10;99.90
27741;DHT22;15134;48.768;9.184;2023-08-06T10:50:12;18.30;99.90
27741;DHT22;15134;48.768;9.184;2023-08-06T10:52:39;18.30;99.90
27741;DHT22;15134;48.768;9.184;2023-08-06T10:55:06;18.30;99.90
27741;DHT22;15134;48.768;9.184;2023-08-06T10:57:31;18.20;99.90
27741;DHT22;15134;48.768;9.184;2023-08-06T10:59:57;18.30;99.90
27741;DHT22;15134;48.768;9.184;2023-08-06T11:02:23;18.40;99.90
27741;DHT22;15134;48.768;9.184;2023-08-06T11:04:49;18.30;99.90
27741;DHT22;15134;48.768;9.184;2023-08-06T11:07:14;18.20;99.90
27741;DHT22;15134;48.768;9.184;2023-08-06T11:09:40;18.10;99.90
27741;DHT22;15134;48.768;9.184;2023-08-06T11:12:18;18.10;99.90
27741;DHT22;15134;48.768;9.184;2023-08-06T11:14:50;18.10;99.90
27741;DHT22;15134;48.768;9.184;2023-08-06T11:17:16;18.00;99.90
27741;DHT22;15134;48.768;9.184;2023-08-06T11:19:41;18.00;99.90
27741;DHT22;15134;48.768;9.184;2023-08-06T11:22:07;18.00;99.90
27741;DHT22;15134;48.768;9.184;2023-08-06T11:24:35;18.10;99.90
27741;DHT22;15134;48.768;9.184;2023-08-06T11:27:14;18.00;99.90
27741;DHT22;15134;48.768;9.184;2023-08-06T11:29:46;17.90;99.90
27741;DHT22;15134;48.768;9.184;2023-08-06T11:32:14;17.80;99.90
27741;DHT22;15134;48.768;9.184;2023-08-06T11:34:40;17.70;99.90
27741;DHT22;15134;48.768;9.184;2023-08-06T11:37:07;17.80;99.90
27741;DHT22;15134;48.768;9.184;2023-08-06T11:39:35;17.80;99.90
27741;DHT22;15134;48.768;9.184;2023-08-06T11:42:05;17.90;99.90
27741;DHT22;15134;48.768;9.184;2023-08-06T11:44:32;17.90;99.90
27741;DHT22;15134;48.768;9.184;2023-08-06T11:47:01;18.00;99.90
27741;DHT22;15134;48.768;9.184;2023-08-06T11:49:50;17.80;99.90
27741;DHT22;15134;48.768;9.184;2023-08-06T11:52:23;17.70;99.90
27741;DHT22;15134;48.768;9.184;2023-08-06T11:57:32;17.60;99.90
27741;DHT22;15134;48.768;9.184;2023-08-06T12:00:11;17.50;99.90
27741;DHT22;15134;48.768;9.184;2023-08-06T12:02:44;17.50;99.90
27741;DHT22;15134;48.768;9.184;2023-08-06T12:05:15;17.30;99.90
27741;DHT22;15134;48.768;9.184;2023-08-06T12:07:54;17.40;99.90
27741;DHT22;15134;48.768;9.184;2023-08-06T12:10:21;17.30;99.90
27741;DHT22;15134;48.768;9.184;2023-08-06T12:12:47;17.30;99.90
27741;DHT22;15134;48.768;9.184;2023-08-06T12:15:14;17.30;99.90
27741;DHT22;15134;48.768;9.184;2023-08-06T12:17:39;17.10;99.90
27741;DHT22;15134;48.768;9.184;2023-08-06T12:20:06;17.00;99.90
27741;DHT22;15134;48.768;9.184;2023-08-06T12:22:33;17.00;99.90
27741;DHT22;15134;48.768;9.184;2023-08-06T12:25:13;17.10;99.90
27741;DHT22;15134;48.768;9.184;2023-08-06T12:27:43;17.20;99.90
27741;DHT22;15134;48.768;9.184;2023-08-06T12:30:11;17.20;99.90
27741;DHT22;15134;48.768;9.184;2023-08-06T12:32:38;17.20;99.90
27741;DHT22;15134;48.768;9.184;2023-08-06T12:35:04;17.20;99.90
27741;DHT22;15134;48.768;9.184;2023-08-06T12:37:32;17.30;99.90
27741;DHT22;15134;48.768;9.184;2023-08-06T12:39:58;17.30;99.90
27741;DHT22;15134;48.768;9.184;2023-08-06T12:42:24;17.30;99.90
27741;DHT22;15134;48.768;9.184;2023-08-06T12:44:49;17.40;99.90
27741;DHT22;15134;48.768;9.184;2023-08-06T12:47:19;17.50;99.90
27741;DHT22;15134;48.768;9.184;2023-08-06T12:49:46;17.60;99.90
27741;DHT22;15134;48.768;9.184;2023-08-06T12:52:11;17.80;99.90
27741;DHT22;15134;48.768;9.184;2023-08-06T12:54:42;18.00;99.90
27741;DHT22;15134;48.768;9.184;2023-08-06T12:57:10;18.10;99.90
27741;DHT22;15134;48.768;9.184;2023-08-06T12:59:35;18.20;99.90
27741;DHT22;15134;48.768;9.184;2023-08-06T13:02:05;18.30;99.90
27741;DHT22;15134;48.768;9.184;2023-08-06T13:04:31;18.30;99.90
27741;DHT22;15134;48.768;9.184;2023-08-06T13:06:58;18.20;99.90
27741;DHT22;15134;48.768;9.184;2023-08-06T13:09:24;18.10;99.90
27741;DHT22;15134;48.768;9.184;2023-08-06T13:11:51;18.10;99.90
27741;DHT22;15134;48.768;9.184;2023-08-06T13:14:17;18.10;99.90
27741;DHT22;15134;48.768;9.184;2023-08-06T13:16:43;18.10;99.90
27741;DHT22;15134;48.768;9.184;2023-08-06T13:19:10;18.20;99.90
27741;DHT22;15134;48.768;9.184;2023-08-06T13:21:59;18.20;99.90
27741;DHT22;15134;48.768;9.184;2023-08-06T13:24:27;18.40;99.90
27741;DHT22;15134;48.768;9.184;2023-08-06T13:26:53;18.30;99.90
27741;DHT22;15134;48.768;9.184;2023-08-06T13:29:18;18.30;99.90
27741;DHT22;15134;48.768;9.184;2023-08-06T13:31:44;18.30;99.90
27741;DHT22;15134;48.768;9.184;2023-08-06T13:34:10;18.30;99.90
27741;DHT22;15134;48.768;9.184;2023-08-06T13:36:36;18.40;99.90
27741;DHT22;15134;48.768;9.184;2023-08-06T13:39:02;18.50;99.90
27741;DHT22;15134;48.768;9.184;2023-08-06T13:41:29;18.60;99.90
27741;DHT22;15134;48.768;9.184;2023-08-06T13:43:54;18.60;99.90
27741;DHT22;15134;48.768;9.184;2023-08-06T13:46:20;18.50;99.90
27741;DHT22;15134;48.768;9.184;2023-08-06T13:48:47;18.40;99.90
27741;DHT22;15134;48.768;9.184;2023-08-06T13:51:16;18.20;99.90
27741;DHT22;15134;48.768;9.184;2023-08-06T13:53:42;18.10;99.90
27741;DHT22;15134;48.768;9.184;2023-08-06T13:56:09;17.90;99.90
27741;DHT22;15134;48.768;9.184;2023-08-06T13:58:35;17.90;99.90
27741;DHT22;15134;48.768;9.184;2023-08-06T14:01:02;18.00;99.90
27741;DHT22;15134;48.768;9.184;2023-08-06T14:03:28;18.00;99.90
27741;DHT22;15134;48.768;9.184;2023-08-06T14:05:54;18.00;99.90
27741;DHT22;15134;48.768;9.184;2023-08-06T14:08:24;18.10;99.90
27741;DHT22;15134;48.768;9.184;2023-08-06T14:10:54;18.00;99.90
27741;DHT22;15134;48.768;9.184;2023-08-06T14:13:20;18.00;99.90
27741;DHT22;15134;48.768;9.184;2023-08-06T14:15:46;18.00;99.90
27741;DHT22;15134;48.768;9.184;2023-08-06T14:18:13;18.00;99.90
27741;DHT22;15134;48.768;9.184;2023-08-06T14:20:40;18.00;99.90
27741;DHT22;15134;48.768;9.184;2023-08-06T14:23:06;18.10;99.90
27741;DHT22;15134;48.768;9.184;2023-08-06T14:25:32;18.10;99.90
27741;DHT22;15134;48.768;9.184;2023-08-06T14:27:57;18.20;99.90
27741;DHT22;15134;48.768;9.184;2023-08-06T14:30:23;18.20;99.90
27741;DHT22;15134;48.768;9.184;2023-08-06T14:32:49;18.20;99.90
27741;DHT22;15134;48.768;9.184;2023-08-06T14:35:15;18.20;99.90
27741;DHT22;15134;48.768;9.184;2023-08-06T14:37:41;18.20;99.90
27741;DHT22;15134;48.768;9.184;2023-08-06T14:40:07;18.20;99.90
27741;DHT22;15134;48.768;9.184;2023-08-06T14:42:33;17.80;99.90
27741;DHT22;15134;48.768;9.184;2023-08-06T14:44:59;17.70;99.90
27741;DHT22;15134;48.768;9.184;2023-08-06T14:47:25;17.60;99.90
27741;DHT22;15134;48.768;9.184;2023-08-06T14:49:50;17.50;99.90
27741;DHT22;15134;48.768;9.184;2023-08-06T14:52:22;17.40;99.90
27741;DHT22;15134;48.768;9.184;2023-08-06T14:54:48;17.40;99.90
27741;DHT22;15134;48.768;9.184;2023-08-06T14:57:17;17.50;99.90
27741;DHT22;15134;48.768;9.184;2023-08-06T14:59:43;17.50;99.90
27741;DHT22;15134;48.768;9.184;2023-08-06T15:02:09;17.70;99.90
27741;DHT22;15134;48.768;9.184;2023-08-06T15:04:34;17.60;99.90
27741;DHT22;15134;48.768;9.184;2023-08-06T15:07:02;17.50;99.90
27741;DHT22;15134;48.768;9.184;2023-08-06T15:09:28;17.40;99.90
27741;DHT22;15134;48.768;9.184;2023-08-06T15:11:54;17.30;99.90
27741;DHT22;15134;48.768;9.184;2023-08-06T15:14:19;17.40;99.90
27741;DHT22;15134;48.768;9.184;2023-08-06T15:16:49;17.50;99.90
27741;DHT22;15134;48.768;9.184;2023-08-06T15:19:17;17.70;99.90
27741;DHT22;15134;48.768;9.184;2023-08-06T15:21:42;17.70;99.90
27741;DHT22;15134;48.768;9.184;2023-08-06T15:24:09;17.70;99.90
27741;DHT22;15134;48.768;9.184;2023-08-06T15:26:34;17.70;99.90
27741;DHT22;15134;48.768;9.184;2023-08-06T15:29:00;17.80;99.90
27741;DHT22;15134;48.768;9.184;2023-08-06T15:31:36;17.90;99.90
27741;DHT22;15134;48.768;9.184;2023-08-06T15:34:05;17.90;99.90
27741;DHT22;15134;48.768;9.184;2023-08-06T15:36:34;17.90;99.90
27741;DHT22;15134;48.768;9.184;2023-08-06T15:39:02;18.00;99.90
27741;DHT22;15134;48.768;9.184;2023-08-06T15:41:31;18.10;99.90